Air Quality Table

TIMESTAMP NO2 SO2 O3 PM10 PM2.5 CO TEMP HUM WS WD NO
2022-01-24 06:00 3.99 µg/m3 1.5 µg/m3 81.66 µg/m3 4.66 µg/m3 N/A 0.18 mg/m3 10.27 °C 62.92 % 3.41 m/s 310.33 Deg 0.02 µg/m3
2022-01-24 05:00 2.33 µg/m3 1.27 µg/m3 82.83 µg/m3 4.29 µg/m3 N/A 0.18 mg/m3 10.14 °C 61.69 % 3.58 m/s 229.66 Deg 0.04 µg/m3
2022-01-24 04:00 2.48 µg/m3 1.37 µg/m3 79.76 µg/m3 4.07 µg/m3 N/A 0.14 mg/m3 9.78 °C 64.59 % 2.74 m/s 249.67 Deg 0.04 µg/m3
2022-01-24 03:00 2.87 µg/m3 1.3 µg/m3 80.99 µg/m3 3.12 µg/m3 N/A 0.18 mg/m3 9.75 °C 65.32 % 3.75 m/s 100.01 Deg 0.06 µg/m3
2022-01-24 02:00 2.1 µg/m3 0.86 µg/m3 83.02 µg/m3 2.37 µg/m3 N/A 0.18 mg/m3 9.67 °C 70.08 % 3.22 m/s 132.68 Deg 0.04 µg/m3
2022-01-24 01:00 2.26 µg/m3 0.73 µg/m3 86.07 µg/m3 2.7 µg/m3 N/A 0.18 mg/m3 9.8 °C 71.16 % 3.4 m/s 123.95 Deg 0.04 µg/m3
2022-01-24 00:00 3.38 µg/m3 0.68 µg/m3 86.2 µg/m3 3.82 µg/m3 N/A 0.18 mg/m3 10.32 °C 69.25 % 4.12 m/s 193.13 Deg 0.04 µg/m3
2022-01-23 23:00 2.73 µg/m3 0.63 µg/m3 87.06 µg/m3 2.56 µg/m3 N/A 0.18 mg/m3 10.96 °C 59.86 % 3.67 m/s 193.69 Deg 0.03 µg/m3
2022-01-23 22:00 2.83 µg/m3 0.67 µg/m3 88.78 µg/m3 2.4 µg/m3 N/A 0.18 mg/m3 11.45 °C 59.13 % 4.41 m/s 221.07 Deg 0.03 µg/m3
2022-01-23 21:00 1.34 µg/m3 0.48 µg/m3 91.69 µg/m3 2.94 µg/m3 N/A 0.18 mg/m3 11.48 °C 58.85 % 3.16 m/s 285.55 Deg 0.02 µg/m3
2022-01-23 20:00 1.59 µg/m3 0.53 µg/m3 92.25 µg/m3 2.33 µg/m3 N/A 0.18 mg/m3 11.46 °C 59.11 % 4.06 m/s 268.35 Deg 0.02 µg/m3
2022-01-23 19:00 1.5 µg/m3 0.52 µg/m3 91.92 µg/m3 1.95 µg/m3 N/A 0.17 mg/m3 11.45 °C 59.49 % 4.02 m/s 193.09 Deg 0.02 µg/m3
2022-01-23 18:00 1.05 µg/m3 0.47 µg/m3 90.9 µg/m3 2.1 µg/m3 N/A 0.17 mg/m3 11.17 °C 57.99 % 3.61 m/s 266.73 Deg 0.02 µg/m3
2022-01-23 17:00 0.87 µg/m3 0.55 µg/m3 89.97 µg/m3 1.06 µg/m3 N/A 0.17 mg/m3 11.41 °C 58.28 % 4.68 m/s 243.22 Deg 0.05 µg/m3
2022-01-23 16:00 1.75 µg/m3 0.55 µg/m3 90.82 µg/m3 2.54 µg/m3 N/A 0.18 mg/m3 11.45 °C 64.78 % 4.92 m/s 299.61 Deg 0.14 µg/m3
2022-01-23 15:00 1.87 µg/m3 0.55 µg/m3 89.52 µg/m3 1.54 µg/m3 N/A 0.18 mg/m3 11.65 °C 65.55 % 4.87 m/s 247.63 Deg 0.22 µg/m3
2022-01-23 14:00 1.83 µg/m3 0.59 µg/m3 88.52 µg/m3 0.63 µg/m3 N/A 0.17 mg/m3 11.73 °C 62.88 % 4.37 m/s 272.75 Deg 0.3 µg/m3
2022-01-23 13:00 1.25 µg/m3 0.54 µg/m3 87.9 µg/m3 0.1 µg/m3 N/A 0.17 mg/m3 11.53 °C 59.72 % 3.95 m/s 263.66 Deg 0.17 µg/m3
2022-01-23 12:00 1.3 µg/m3 0.74 µg/m3 85.71 µg/m3 1.31 µg/m3 N/A 0.16 mg/m3 11.82 °C 53.13 % 3.79 m/s 292.26 Deg 0.19 µg/m3
2022-01-23 11:00 1.51 µg/m3 0.84 µg/m3 81.02 µg/m3 1.49 µg/m3 N/A 0.17 mg/m3 11.72 °C 57.02 % 3.65 m/s 304.62 Deg 0.24 µg/m3
2022-01-23 10:00 4.67 µg/m3 0.86 µg/m3 74.07 µg/m3 2.19 µg/m3 N/A 0.17 mg/m3 11.32 °C 59.56 % 4.39 m/s 218.74 Deg 0.9 µg/m3
2022-01-23 09:00 2.78 µg/m3 1.29 µg/m3 75.05 µg/m3 2.14 µg/m3 N/A 0.17 mg/m3 10.61 °C 57.89 % 4.28 m/s 303.83 Deg 0.31 µg/m3

It is to be noted that the data is provisional and subject to quality assurance procedures. For validated data kindly refer your request to contact.air@era.org.mt